createdAt,value
2022-10-12T00:00:30.999Z,95.68
2022-10-12T00:01:31.068Z,95.68
2022-10-12T00:02:30.988Z,95.78
2022-10-12T00:03:30.966Z,95.78
2022-10-12T00:04:30.947Z,95.89
2022-10-12T00:05:30.947Z,95.78
2022-10-12T00:06:30.948Z,95.68
2022-10-12T00:07:30.919Z,95.57
2022-10-12T00:08:30.942Z,95.57
2022-10-12T00:09:30.930Z,95.57
2022-10-12T00:10:30.888Z,95.62
2022-10-12T00:11:30.888Z,95.52
2022-10-12T00:12:30.896Z,95.52
2022-10-12T00:13:30.859Z,95.62
2022-10-12T00:14:30.852Z,95.73
2022-10-12T00:15:30.858Z,95.73
2022-10-12T00:16:30.847Z,95.83
2022-10-12T00:17:30.817Z,95.83
2022-10-12T00:18:30.837Z,95.83
2022-10-12T00:19:30.793Z,95.62
2022-10-12T00:20:30.771Z,95.62
2022-10-12T00:21:30.771Z,95.42
2022-10-12T00:22:30.763Z,95.31
2022-10-12T00:23:30.777Z,95.21
2022-10-12T00:24:30.759Z,95.21
2022-10-12T00:25:30.758Z,95.31
2022-10-12T00:26:30.713Z,95.21
2022-10-12T00:27:30.706Z,95.10
2022-10-12T00:28:30.782Z,95.10
2022-10-12T00:29:30.714Z,95.10
2022-10-12T00:30:30.663Z,95.21
2022-10-12T00:31:30.683Z,95.31
2022-10-12T00:32:30.675Z,95.36
2022-10-12T00:33:30.643Z,95.36
2022-10-12T00:34:30.645Z,95.36
2022-10-12T00:35:30.614Z,95.46
2022-10-12T00:36:30.608Z,95.56
2022-10-12T00:37:30.615Z,95.67
2022-10-12T00:38:30.606Z,95.77
2022-10-12T00:39:30.598Z,95.77
2022-10-12T00:40:30.568Z,95.92
2022-10-12T00:41:30.584Z,96.02
2022-10-12T00:42:30.558Z,96.12
2022-10-12T00:43:30.565Z,96.12
2022-10-12T00:44:30.565Z,96.12
2022-10-12T00:45:30.515Z,96.23
2022-10-12T00:46:30.504Z,96.33
2022-10-12T00:47:30.492Z,96.33
2022-10-12T00:48:31.469Z,96.44
2022-10-12T00:49:30.465Z,96.54
2022-10-12T00:50:30.486Z,96.64
2022-10-12T00:51:30.467Z,96.75
2022-10-12T00:52:30.439Z,96.75
2022-10-12T00:53:30.417Z,96.85
2022-10-12T00:54:30.417Z,96.75
2022-10-12T00:55:30.404Z,96.75
2022-10-12T00:56:30.417Z,96.75
2022-10-12T00:57:30.387Z,96.75
2022-10-12T00:58:31.322Z,96.75
2022-10-12T00:59:30.358Z,96.75
2022-10-12T01:00:30.395Z,96.75
2022-10-12T01:01:30.342Z,96.75
2022-10-12T01:02:30.351Z,96.75
2022-10-12T01:03:30.308Z,96.75
2022-10-12T01:04:30.299Z,96.75
2022-10-12T01:05:30.308Z,96.85
2022-10-12T01:06:30.313Z,96.85
2022-10-12T01:07:30.267Z,96.85
2022-10-12T01:08:30.280Z,96.75
2022-10-12T01:09:30.259Z,96.75
2022-10-12T01:10:30.224Z,96.64
2022-10-12T01:11:30.238Z,96.75
2022-10-12T01:12:30.231Z,96.85
2022-10-12T01:13:30.226Z,96.85
2022-10-12T01:14:30.229Z,96.95
2022-10-12T01:15:30.182Z,96.85
2022-10-12T01:16:30.172Z,96.85
2022-10-12T01:17:30.169Z,96.75
2022-10-12T01:18:30.141Z,96.64
2022-10-12T01:19:30.156Z,96.64
2022-10-12T01:20:30.145Z,96.75
2022-10-12T01:21:30.125Z,96.64
2022-10-12T01:22:30.127Z,96.64
2022-10-12T01:23:30.093Z,96.54
2022-10-12T01:24:30.144Z,96.44
2022-10-12T01:25:30.073Z,96.33
2022-10-12T01:26:30.065Z,96.33
2022-10-12T01:27:30.054Z,96.33
2022-10-12T01:28:30.067Z,96.33
2022-10-12T01:29:30.034Z,96.33
2022-10-12T01:30:30.042Z,96.33
2022-10-12T01:31:32.619Z,96.33
2022-10-12T01:32:30.006Z,96.37
2022-10-12T01:33:30.018Z,96.37
2022-10-12T01:34:29.975Z,96.37
2022-10-12T01:35:30.004Z,96.48
2022-10-12T01:36:29.964Z,96.48
2022-10-12T01:37:29.962Z,96.58
2022-10-12T01:38:29.926Z,96.69
2022-10-12T01:39:30.891Z,96.69
2022-10-12T01:40:29.925Z,96.69
2022-10-12T01:41:29.925Z,96.79
2022-10-12T01:42:29.888Z,96.79
2022-10-12T01:43:29.892Z,96.89
2022-10-12T01:44:29.886Z,96.89
2022-10-12T01:45:30.840Z,96.89
2022-10-12T01:46:29.891Z,96.89
2022-10-12T01:47:29.841Z,96.79
2022-10-12T01:48:29.862Z,96.79
2022-10-12T01:49:29.818Z,96.79
2022-10-12T01:50:29.797Z,96.89
2022-10-12T01:51:29.802Z,97.00
2022-10-12T01:52:29.802Z,97.10
2022-10-12T01:53:29.767Z,97.31
2022-10-12T01:54:29.774Z,97.31
2022-10-12T01:55:29.738Z,97.31
2022-10-12T01:56:29.727Z,97.31
2022-10-12T01:57:29.734Z,97.20
2022-10-12T01:58:29.745Z,97.10
2022-10-12T01:59:29.713Z,97.00
2022-10-12T02:00:29.740Z,97.00
2022-10-12T02:01:29.772Z,96.89
2022-10-12T02:02:29.671Z,96.79
2022-10-12T02:03:29.700Z,96.64
2022-10-12T02:04:29.646Z,96.44
2022-10-12T02:05:29.654Z,96.27
2022-10-12T02:06:29.631Z,96.17
2022-10-12T02:07:29.621Z,96.17
2022-10-12T02:08:29.620Z,96.17
2022-10-12T02:09:29.639Z,96.17
2022-10-12T02:10:29.582Z,96.27
2022-10-12T02:11:29.572Z,96.27
2022-10-12T02:12:29.571Z,96.37
2022-10-12T02:13:29.585Z,96.48
2022-10-12T02:14:29.532Z,96.58
2022-10-12T02:15:29.556Z,96.62
2022-10-12T02:16:29.519Z,96.62
2022-10-12T02:17:29.515Z,96.73
2022-10-12T02:18:29.513Z,96.62
2022-10-12T02:19:29.523Z,96.73
2022-10-12T02:20:29.471Z,96.73
2022-10-12T02:21:29.463Z,96.83
2022-10-12T02:22:29.444Z,96.94
2022-10-12T02:23:29.448Z,97.04
2022-10-12T02:24:29.432Z,97.14
2022-10-12T02:25:29.440Z,97.14
2022-10-12T02:26:29.411Z,97.14
2022-10-12T02:27:29.525Z,97.14
2022-10-12T02:28:29.414Z,97.14
2022-10-12T02:29:29.372Z,97.14
2022-10-12T02:30:29.392Z,97.14
2022-10-12T02:31:29.375Z,97.04
2022-10-12T02:32:29.341Z,97.04
2022-10-12T02:33:29.326Z,97.04
2022-10-12T02:34:29.307Z,97.04
2022-10-12T02:35:29.310Z,97.04
2022-10-12T02:36:29.326Z,97.14
2022-10-12T02:37:29.286Z,97.14
2022-10-12T02:38:29.270Z,97.14
2022-10-12T02:39:29.262Z,97.04
2022-10-12T02:40:29.267Z,97.04
2022-10-12T02:41:29.261Z,97.04
2022-10-12T02:42:32.087Z,97.09
2022-10-12T02:43:30.233Z,97.19
2022-10-12T02:44:29.218Z,97.29
2022-10-12T02:45:29.197Z,97.29
2022-10-12T02:46:29.208Z,97.29
2022-10-12T02:47:29.180Z,97.29
2022-10-12T02:48:29.198Z,97.39
2022-10-12T02:49:29.170Z,97.29
2022-10-12T02:50:29.146Z,97.29
2022-10-12T02:51:29.139Z,97.39
2022-10-12T02:52:29.118Z,97.39
2022-10-12T02:53:29.091Z,97.50
2022-10-12T02:54:29.140Z,97.50
2022-10-12T02:55:29.080Z,97.50
2022-10-12T02:56:30.033Z,97.50
2022-10-12T02:57:29.051Z,97.50
2022-10-12T02:58:29.059Z,97.60
2022-10-12T02:59:29.051Z,97.60
2022-10-12T03:00:29.061Z,97.60
2022-10-12T03:01:29.073Z,97.60
2022-10-12T03:02:29.032Z,97.71
2022-10-12T03:03:28.986Z,97.60
2022-10-12T03:04:29.022Z,97.60
2022-10-12T03:05:28.983Z,97.60
2022-10-12T03:06:28.963Z,97.60
2022-10-12T03:07:28.974Z,97.60
2022-10-12T03:08:28.962Z,97.71
2022-10-12T03:09:28.933Z,97.71
2022-10-12T03:10:28.923Z,97.81
2022-10-12T03:11:28.968Z,97.81
2022-10-12T03:12:28.897Z,97.91
2022-10-12T03:13:28.882Z,97.81
2022-10-12T03:14:28.893Z,97.81
2022-10-12T03:15:28.895Z,97.91
2022-10-12T03:16:28.853Z,97.81
2022-10-12T03:17:28.878Z,97.81
2022-10-12T03:18:28.832Z,97.81
2022-10-12T03:19:29.777Z,97.91
2022-10-12T03:20:28.810Z,97.91
2022-10-12T03:21:28.796Z,97.81
2022-10-12T03:22:28.798Z,97.91
2022-10-12T03:23:28.796Z,97.91
2022-10-12T03:24:28.776Z,97.91
2022-10-12T03:25:28.785Z,97.81
2022-10-12T03:26:28.747Z,97.71
2022-10-12T03:27:28.777Z,97.60
2022-10-12T03:28:28.757Z,97.60
2022-10-12T03:29:28.704Z,97.71
2022-10-12T03:30:28.697Z,97.60
2022-10-12T03:31:28.695Z,97.60
2022-10-12T03:32:28.685Z,97.50
2022-10-12T03:33:28.687Z,97.50
2022-10-12T03:34:28.667Z,97.50
2022-10-12T03:35:28.701Z,97.55
2022-10-12T03:36:28.637Z,97.55
2022-10-12T03:37:28.615Z,97.55
2022-10-12T03:38:28.630Z,97.55
2022-10-12T03:39:28.596Z,97.55
2022-10-12T03:40:28.629Z,97.55
2022-10-12T03:41:28.585Z,97.55
2022-10-12T03:42:28.573Z,97.65
2022-10-12T03:43:28.567Z,97.65
2022-10-12T03:44:28.547Z,97.65
2022-10-12T03:45:28.538Z,97.75
2022-10-12T03:46:28.554Z,97.75
2022-10-12T03:47:28.516Z,97.75
2022-10-12T03:48:28.508Z,97.75
2022-10-12T03:49:28.510Z,97.86
2022-10-12T03:50:28.483Z,97.96
2022-10-12T03:51:28.483Z,98.07
2022-10-12T03:52:28.460Z,98.17
2022-10-12T03:53:28.449Z,98.21
2022-10-12T03:54:28.460Z,98.27
2022-10-12T03:55:28.427Z,98.32
2022-10-12T03:56:28.466Z,98.27
2022-10-12T03:57:28.401Z,98.38
2022-10-12T03:58:28.433Z,98.48
2022-10-12T03:59:28.377Z,98.48
2022-10-12T04:00:28.431Z,98.58
2022-10-12T04:01:28.618Z,98.58
2022-10-12T04:02:29.806Z,98.58
2022-10-12T04:03:28.353Z,98.48
2022-10-12T04:04:28.427Z,98.48
2022-10-12T04:05:28.312Z,98.48
2022-10-12T04:06:28.379Z,98.48
2022-10-12T04:07:28.323Z,98.48
2022-10-12T04:08:28.283Z,98.58
2022-10-12T04:09:28.262Z,98.48
2022-10-12T04:10:28.284Z,98.43
2022-10-12T04:11:28.244Z,98.43
2022-10-12T04:12:28.263Z,98.43
2022-10-12T04:13:29.675Z,98.43
2022-10-12T04:14:28.224Z,98.33
2022-10-12T04:15:28.277Z,98.33
2022-10-12T04:16:30.405Z,98.33
2022-10-12T04:17:28.286Z,98.33
2022-10-12T04:18:28.279Z,98.22
2022-10-12T04:19:28.189Z,98.22
2022-10-12T04:20:28.167Z,98.12
2022-10-12T04:21:28.152Z,98.02
2022-10-12T04:22:28.222Z,98.02
2022-10-12T04:23:30.068Z,98.02
2022-10-12T04:24:29.082Z,98.02
2022-10-12T04:25:30.222Z,97.91
2022-10-12T04:26:28.127Z,97.91
2022-10-12T04:27:28.677Z,97.91
2022-10-12T04:28:28.082Z,97.91
2022-10-12T04:29:28.156Z,97.91
2022-10-12T04:30:28.040Z,97.97
2022-10-12T04:31:28.148Z,97.97
2022-10-12T04:32:28.031Z,97.87
2022-10-12T04:33:28.024Z,97.77
2022-10-12T04:34:28.008Z,97.77
2022-10-12T04:35:28.110Z,97.66
2022-10-12T04:36:28.081Z,97.56
2022-10-12T04:37:28.160Z,97.45
2022-10-12T04:38:28.119Z,97.50
2022-10-12T04:39:27.951Z,97.50
2022-10-12T04:40:27.970Z,97.56
2022-10-12T04:41:27.933Z,97.66
2022-10-12T04:42:27.909Z,97.66
2022-10-12T04:43:27.924Z,97.66
2022-10-12T04:44:31.935Z,97.66
2022-10-12T04:45:27.870Z,97.66
2022-10-12T04:46:27.872Z,97.81
2022-10-12T04:47:28.233Z,97.77
2022-10-12T04:48:27.862Z,97.87
2022-10-12T04:49:27.824Z,97.87
2022-10-12T04:50:30.151Z,97.87
2022-10-12T04:51:27.823Z,97.87
2022-10-12T04:52:28.272Z,97.87
2022-10-12T04:53:27.835Z,97.97
2022-10-12T04:54:28.575Z,97.97
2022-10-12T04:55:27.772Z,97.87
2022-10-12T04:56:28.246Z,97.87
2022-10-12T04:57:27.760Z,97.87
2022-10-12T04:58:27.724Z,97.97
2022-10-12T04:59:27.733Z,97.97
2022-10-12T05:00:27.804Z,98.08
2022-10-12T05:01:27.731Z,98.08
2022-10-12T05:02:27.696Z,98.08
2022-10-12T05:03:27.664Z,98.08
2022-10-12T05:04:27.750Z,98.08
2022-10-12T05:05:27.663Z,97.97
2022-10-12T05:06:27.665Z,97.97
2022-10-12T05:07:27.637Z,98.08
2022-10-12T05:08:27.644Z,98.08
2022-10-12T05:09:27.688Z,98.08
2022-10-12T05:10:27.627Z,98.08
2022-10-12T05:11:27.581Z,98.18
2022-10-12T05:12:27.588Z,98.18
2022-10-12T05:13:27.588Z,98.18
2022-10-12T05:14:30.068Z,98.28
2022-10-12T05:15:28.613Z,98.28
2022-10-12T05:16:27.570Z,98.28
2022-10-12T05:17:27.520Z,98.39
2022-10-12T05:18:27.526Z,98.39
2022-10-12T05:19:27.563Z,98.49
2022-10-12T05:20:27.504Z,98.49
2022-10-12T05:21:28.940Z,98.49
2022-10-12T05:22:27.497Z,98.49
2022-10-12T05:23:27.472Z,98.60
2022-10-12T05:24:28.415Z,98.60
2022-10-12T05:25:27.437Z,98.60
2022-10-12T05:26:27.441Z,98.60
2022-10-12T05:27:27.448Z,98.70
2022-10-12T05:28:28.305Z,98.70
2022-10-12T05:29:27.398Z,98.70
2022-10-12T05:30:27.371Z,98.80
2022-10-12T05:31:27.373Z,98.70
2022-10-12T05:32:27.571Z,98.70
2022-10-12T05:33:28.330Z,98.60
2022-10-12T05:34:27.342Z,98.49
2022-10-12T05:35:28.788Z,98.54
2022-10-12T05:36:27.330Z,98.49
2022-10-12T05:37:28.259Z,98.64
2022-10-12T05:38:27.301Z,98.74
2022-10-12T05:39:27.325Z,98.74
2022-10-12T05:40:27.322Z,98.60
2022-10-12T05:41:27.291Z,98.70
2022-10-12T05:42:27.255Z,98.70
2022-10-12T05:43:27.250Z,98.60
2022-10-12T05:44:27.221Z,98.54
2022-10-12T05:45:28.012Z,98.33
2022-10-12T05:46:27.220Z,98.33
2022-10-12T05:47:28.156Z,98.22
2022-10-12T05:48:27.215Z,98.12
2022-10-12T05:49:27.220Z,98.12
2022-10-12T05:50:28.133Z,98.12
2022-10-12T05:51:29.178Z,98.12
2022-10-12T05:52:27.248Z,98.27
2022-10-12T05:53:27.126Z,98.27
2022-10-12T05:54:27.222Z,98.38
2022-10-12T05:55:28.075Z,98.48
2022-10-12T05:56:27.110Z,98.69
2022-10-12T05:57:27.079Z,98.69
2022-10-12T05:58:27.082Z,98.79
2022-10-12T05:59:27.083Z,99.00
2022-10-12T06:00:27.053Z,98.90
2022-10-12T06:01:27.065Z,98.90
2022-10-12T06:02:27.073Z,98.90
2022-10-12T06:03:28.674Z,98.90
2022-10-12T06:04:27.006Z,98.79
2022-10-12T06:05:27.236Z,98.79
2022-10-12T06:06:26.986Z,98.79
2022-10-12T06:07:26.964Z,98.79
2022-10-12T06:08:26.984Z,98.79
2022-10-12T06:09:26.953Z,98.90
2022-10-12T06:10:29.937Z,99.00
2022-10-12T06:11:26.921Z,99.00
2022-10-12T06:12:26.931Z,99.00
2022-10-12T06:13:26.942Z,99.00
2022-10-12T06:14:26.887Z,99.00
2022-10-12T06:15:26.882Z,98.90
2022-10-12T06:16:26.868Z,98.90
2022-10-12T06:17:26.838Z,98.90
2022-10-12T06:18:26.850Z,98.90
2022-10-12T06:19:27.517Z,98.79
2022-10-12T06:20:26.867Z,98.79
2022-10-12T06:21:34.796Z,98.79
2022-10-12T06:22:27.830Z,98.79
2022-10-12T06:23:26.779Z,98.79
2022-10-12T06:24:26.787Z,98.79
2022-10-12T06:25:27.718Z,98.79
2022-10-12T06:26:26.812Z,98.79
2022-10-12T06:27:26.755Z,98.79
2022-10-12T06:28:26.779Z,98.90
2022-10-12T06:29:26.724Z,98.90
2022-10-12T06:30:26.766Z,99.00
2022-10-12T06:31:26.753Z,99.10
2022-10-12T06:32:26.711Z,99.00
2022-10-12T06:33:26.681Z,99.00
2022-10-12T06:34:26.667Z,99.00
2022-10-12T06:35:26.678Z,99.00
2022-10-12T06:36:26.649Z,99.00
2022-10-12T06:37:48.583Z,99.05
2022-10-12T06:38:27.630Z,99.05
2022-10-12T06:39:26.618Z,99.05
2022-10-12T06:40:26.622Z,99.05
2022-10-12T06:41:26.598Z,99.05
2022-10-12T06:42:26.619Z,99.05
2022-10-12T06:43:26.585Z,99.05
2022-10-12T06:44:26.586Z,99.05
2022-10-12T06:45:26.554Z,99.05
2022-10-12T06:46:26.533Z,99.05
2022-10-12T06:47:26.523Z,99.01
2022-10-12T06:48:27.373Z,99.11
2022-10-12T06:49:26.575Z,99.11
2022-10-12T06:50:26.508Z,99.11
2022-10-12T06:51:26.484Z,99.11
2022-10-12T06:52:26.484Z,99.11
2022-10-12T06:53:26.454Z,99.11
2022-10-12T06:54:26.524Z,99.17
2022-10-12T06:55:26.524Z,99.17
2022-10-12T06:56:27.395Z,99.17
2022-10-12T06:57:26.431Z,99.27
2022-10-12T06:58:27.213Z,99.17
2022-10-12T06:59:26.395Z,99.17
2022-10-12T07:00:26.390Z,99.23
2022-10-12T07:01:26.434Z,99.23
2022-10-12T07:02:26.365Z,99.23
2022-10-12T07:03:27.324Z,99.23
2022-10-12T07:04:26.499Z,99.33
2022-10-12T07:05:26.399Z,99.18
2022-10-12T07:06:26.344Z,99.18
2022-10-12T07:07:26.986Z,99.29
2022-10-12T07:08:26.297Z,99.29
2022-10-12T07:09:26.287Z,99.24
2022-10-12T07:10:26.279Z,99.24
2022-10-12T07:11:26.266Z,99.34
2022-10-12T07:12:26.281Z,99.34
2022-10-12T07:13:26.244Z,99.34
2022-10-12T07:14:27.307Z,99.30
2022-10-12T07:15:26.255Z,99.30
2022-10-12T07:16:26.237Z,99.30
2022-10-12T07:17:26.220Z,99.30
2022-10-12T07:18:26.199Z,99.15
2022-10-12T07:19:26.203Z,99.15
2022-10-12T07:20:26.161Z,99.05
2022-10-12T07:21:26.390Z,99.05
2022-10-12T07:22:26.156Z,99.05
2022-10-12T07:23:26.129Z,99.00
2022-10-12T07:24:26.150Z,99.00
2022-10-12T07:25:26.123Z,98.90
2022-10-12T07:26:26.100Z,98.90
2022-10-12T07:27:26.091Z,98.85
2022-10-12T07:28:26.139Z,98.75
2022-10-12T07:29:26.129Z,98.65
2022-10-12T07:30:26.081Z,98.54
2022-10-12T07:31:26.049Z,98.54
2022-10-12T07:32:26.050Z,98.39
2022-10-12T07:33:26.043Z,98.29
2022-10-12T07:34:26.020Z,98.19
2022-10-12T07:35:26.000Z,98.08
2022-10-12T07:36:41.052Z,97.94
2022-10-12T07:37:27.007Z,97.83
2022-10-12T07:38:25.979Z,97.73
2022-10-12T07:39:25.951Z,97.63
2022-10-12T07:40:25.972Z,97.48
2022-10-12T07:41:25.947Z,97.48
2022-10-12T07:42:25.957Z,97.27
2022-10-12T07:43:25.943Z,97.17
2022-10-12T07:44:25.908Z,97.02
2022-10-12T07:45:25.885Z,96.92
2022-10-12T07:46:25.886Z,96.92
2022-10-12T07:47:25.906Z,96.71
2022-10-12T07:48:25.881Z,96.56
2022-10-12T07:49:25.914Z,96.46
2022-10-12T07:50:25.863Z,96.36
2022-10-12T07:51:25.824Z,96.15
2022-10-12T07:52:25.806Z,95.90
2022-10-12T07:53:25.834Z,95.70
2022-10-12T07:54:29.349Z,95.39
2022-10-12T07:55:25.788Z,95.08
2022-10-12T07:56:25.765Z,94.87
2022-10-12T07:57:25.762Z,94.56
2022-10-12T07:58:25.775Z,94.31
2022-10-12T07:59:26.691Z,94.01
2022-10-12T08:00:25.726Z,93.80
2022-10-12T08:01:26.710Z,93.80
2022-10-12T08:02:25.720Z,93.55
2022-10-12T08:03:25.687Z,93.14
2022-10-12T08:04:26.659Z,92.42
2022-10-12T08:05:25.711Z,92.32
2022-10-12T08:06:25.670Z,91.80
2022-10-12T08:07:25.658Z,91.49
2022-10-12T08:08:27.369Z,91.14
2022-10-12T08:09:26.588Z,90.83
2022-10-12T08:10:25.612Z,90.53
2022-10-12T08:11:27.369Z,90.42
2022-10-12T08:12:25.611Z,90.42
2022-10-12T08:13:25.734Z,90.63
2022-10-12T08:14:26.337Z,90.42
2022-10-12T08:15:26.568Z,90.01
2022-10-12T08:16:25.630Z,89.60
2022-10-12T08:17:25.550Z,89.29
2022-10-12T08:18:25.530Z,88.95
2022-10-12T08:19:25.576Z,88.95
2022-10-12T08:20:26.961Z,88.84
2022-10-12T08:21:25.500Z,88.64
2022-10-12T08:22:25.501Z,88.33
2022-10-12T08:23:25.478Z,88.33
2022-10-12T08:24:27.390Z,88.33
2022-10-12T08:25:26.411Z,88.12
2022-10-12T08:26:25.455Z,88.08
2022-10-12T08:27:26.298Z,88.08
2022-10-12T08:28:25.476Z,88.08
2022-10-12T08:29:25.405Z,87.88
2022-10-12T08:30:25.436Z,87.37
2022-10-12T08:31:25.656Z,87.05
2022-10-12T08:32:25.411Z,87.02
2022-10-12T08:33:25.418Z,87.02
2022-10-12T08:34:25.351Z,86.81
2022-10-12T08:35:25.354Z,86.71
2022-10-12T08:36:25.485Z,86.71
2022-10-12T08:37:25.331Z,86.25
2022-10-12T08:38:25.304Z,86.15
2022-10-12T08:39:25.361Z,86.25
2022-10-12T08:40:25.285Z,85.95
2022-10-12T08:41:25.266Z,85.74
2022-10-12T08:42:25.309Z,85.54
2022-10-12T08:43:25.480Z,85.30
2022-10-12T08:44:25.244Z,85.19
2022-10-12T08:45:30.083Z,85.19
2022-10-12T08:46:26.212Z,85.30
2022-10-12T08:47:25.346Z,85.30
2022-10-12T08:48:25.310Z,85.36
2022-10-12T08:49:25.199Z,85.36
2022-10-12T08:50:25.651Z,85.46
2022-10-12T08:51:25.191Z,85.11
2022-10-12T08:52:25.192Z,84.29
2022-10-12T08:53:25.143Z,83.78
2022-10-12T08:54:25.424Z,83.37
2022-10-12T08:55:25.180Z,83.03
2022-10-12T08:56:25.453Z,83.03
2022-10-12T08:57:25.220Z,82.82
2022-10-12T08:58:25.281Z,82.57
2022-10-12T08:59:25.460Z,82.37
2022-10-12T09:00:25.368Z,82.27
2022-10-12T09:01:25.090Z,82.23
2022-10-12T09:02:25.040Z,81.93
2022-10-12T09:03:26.479Z,81.72
2022-10-12T09:04:26.014Z,81.31
2022-10-12T09:05:25.007Z,80.66
2022-10-12T09:06:24.994Z,80.35
2022-10-12T09:07:24.994Z,79.94
2022-10-12T09:08:24.988Z,80.15
2022-10-12T09:09:25.753Z,79.91
2022-10-12T09:10:25.093Z,79.91
2022-10-12T09:11:26.480Z,79.70
2022-10-12T09:12:26.898Z,79.39
2022-10-12T09:13:24.957Z,79.25
2022-10-12T09:14:26.347Z,79.05
2022-10-12T09:15:25.756Z,78.95
2022-10-12T09:16:24.993Z,79.16
2022-10-12T09:17:24.988Z,78.61
2022-10-12T09:18:24.938Z,78.50
2022-10-12T09:19:25.415Z,77.69
2022-10-12T09:20:24.977Z,76.43
2022-10-12T09:21:25.468Z,76.12
2022-10-12T09:22:26.276Z,75.82
2022-10-12T09:23:25.388Z,75.78
2022-10-12T09:24:25.468Z,75.48
2022-10-12T09:25:24.816Z,75.48
2022-10-12T09:26:26.228Z,75.16
2022-10-12T09:27:24.775Z,74.86
2022-10-12T09:28:26.252Z,74.96
2022-10-12T09:29:24.790Z,74.96
2022-10-12T09:30:24.766Z,75.27
2022-10-12T09:31:25.047Z,75.07
2022-10-12T09:32:24.708Z,74.76
2022-10-12T09:33:24.862Z,74.15
2022-10-12T09:34:24.939Z,73.54
2022-10-12T09:35:24.808Z,73.23
2022-10-12T09:36:24.658Z,73.23
2022-10-12T09:37:26.591Z,73.13
2022-10-12T09:38:25.584Z,73.33
2022-10-12T09:39:28.989Z,73.23
2022-10-12T09:40:24.745Z,73.33
2022-10-12T09:41:26.067Z,73.23
2022-10-12T09:42:25.552Z,73.33
2022-10-12T09:43:24.579Z,73.64
2022-10-12T09:44:24.592Z,73.74
2022-10-12T09:45:24.577Z,73.54
2022-10-12T09:46:24.852Z,73.43
2022-10-12T09:47:24.540Z,73.43
2022-10-12T09:48:24.534Z,73.54
2022-10-12T09:49:25.368Z,73.64
2022-10-12T09:50:24.500Z,73.60
2022-10-12T09:51:24.524Z,74.01
2022-10-12T09:52:24.866Z,73.40
2022-10-12T09:53:24.529Z,73.19
2022-10-12T09:54:24.454Z,73.19
2022-10-12T09:55:24.625Z,73.19
2022-10-12T09:56:24.435Z,73.19
2022-10-12T09:57:24.457Z,73.19
2022-10-12T09:58:24.766Z,73.10
2022-10-12T09:59:24.437Z,72.89
2022-10-12T10:00:24.397Z,72.79
2022-10-12T10:01:24.489Z,72.69
2022-10-12T10:02:24.366Z,72.65
2022-10-12T10:03:29.166Z,72.65
2022-10-12T10:04:25.386Z,72.75
2022-10-12T10:05:24.337Z,72.34
2022-10-12T10:06:24.335Z,72.45
2022-10-12T10:07:24.375Z,72.14
2022-10-12T10:08:24.338Z,72.04
2022-10-12T10:09:24.308Z,72.28
2022-10-12T10:10:29.653Z,72.96
2022-10-12T10:11:25.269Z,73.26
2022-10-12T10:12:24.261Z,73.67
2022-10-12T10:13:24.290Z,73.57
2022-10-12T10:14:24.258Z,72.96
2022-10-12T10:15:24.231Z,72.65
2022-10-12T10:16:24.226Z,72.14
2022-10-12T10:17:25.651Z,72.21
2022-10-12T10:18:24.633Z,72.01
2022-10-12T10:19:25.042Z,72.52
2022-10-12T10:20:24.180Z,72.52
2022-10-12T10:21:24.183Z,71.60
2022-10-12T10:22:25.095Z,71.19
2022-10-12T10:23:24.468Z,71.09
2022-10-12T10:24:24.153Z,71.19
2022-10-12T10:25:24.117Z,70.78
2022-10-12T10:26:24.100Z,70.89
2022-10-12T10:27:25.056Z,70.89
2022-10-12T10:28:24.115Z,70.58
2022-10-12T10:29:24.098Z,70.78
2022-10-12T10:30:29.742Z,70.99
2022-10-12T10:31:25.140Z,70.78
2022-10-12T10:32:24.079Z,71.06
2022-10-12T10:33:24.026Z,71.16
2022-10-12T10:34:24.008Z,70.65
2022-10-12T10:35:24.031Z,70.65
2022-10-12T10:36:24.041Z,71.06
2022-10-12T10:37:24.004Z,70.95
2022-10-12T10:38:23.974Z,70.31
2022-10-12T10:39:24.056Z,69.90
2022-10-12T10:40:23.977Z,69.80
2022-10-12T10:41:23.953Z,69.80
2022-10-12T10:42:23.951Z,70.21
2022-10-12T10:43:23.935Z,70.51
2022-10-12T10:44:23.906Z,70.28
2022-10-12T10:45:23.917Z,70.79
2022-10-12T10:46:23.879Z,69.77
2022-10-12T10:47:23.894Z,69.46
2022-10-12T10:48:23.859Z,69.57
2022-10-12T10:49:23.849Z,69.26
2022-10-12T10:50:23.893Z,69.26
2022-10-12T10:51:23.819Z,69.26
2022-10-12T10:52:23.833Z,69.02
2022-10-12T10:53:23.832Z,69.33
2022-10-12T10:54:23.802Z,69.23
2022-10-12T10:55:23.927Z,68.92
2022-10-12T10:56:23.771Z,69.02
2022-10-12T10:57:23.773Z,69.02
2022-10-12T10:58:23.771Z,68.69
2022-10-12T10:59:23.761Z,69.40
2022-10-12T11:00:38.661Z,69.60
2022-10-12T11:01:24.820Z,69.09
2022-10-12T11:02:23.713Z,68.28
2022-10-12T11:03:23.702Z,68.59
2022-10-12T11:04:23.723Z,68.08
2022-10-12T11:05:23.677Z,67.57
2022-10-12T11:06:23.653Z,67.16
2022-10-12T11:07:23.655Z,67.06
2022-10-12T11:08:23.634Z,67.06
2022-10-12T11:09:23.637Z,67.06
2022-10-12T11:10:23.629Z,67.13
2022-10-12T11:11:23.623Z,67.13
2022-10-12T11:12:27.311Z,67.24
2022-10-12T11:13:24.919Z,67.64
2022-10-12T11:14:23.619Z,67.74
2022-10-12T11:15:23.595Z,67.84
2022-10-12T11:16:23.605Z,67.41
2022-10-12T11:17:23.546Z,67.30
2022-10-12T11:18:23.650Z,67.71
2022-10-12T11:19:23.566Z,67.61
2022-10-12T11:20:23.513Z,66.90
2022-10-12T11:21:23.587Z,67.00
2022-10-12T11:22:23.522Z,67.00
2022-10-12T11:23:23.482Z,66.39
2022-10-12T11:24:23.478Z,66.29
2022-10-12T11:25:23.459Z,66.80
2022-10-12T11:26:23.451Z,66.60
2022-10-12T11:27:23.423Z,66.19
2022-10-12T11:28:23.551Z,66.08
2022-10-12T11:29:23.413Z,66.39
2022-10-12T11:30:23.415Z,67.00
2022-10-12T11:31:23.383Z,66.97
2022-10-12T11:32:23.382Z,66.97
2022-10-12T11:33:23.428Z,67.17
2022-10-12T11:34:23.404Z,67.17
2022-10-12T11:35:23.331Z,66.16
2022-10-12T11:36:23.318Z,66.36
2022-10-12T11:37:23.476Z,66.26
2022-10-12T11:38:23.321Z,66.16
2022-10-12T11:39:23.283Z,65.95
2022-10-12T11:40:47.749Z,65.95
2022-10-12T11:41:48.428Z,65.85
2022-10-12T11:42:24.280Z,65.95
2022-10-12T11:43:23.381Z,66.05
2022-10-12T11:44:26.463Z,66.16
2022-10-12T11:45:24.263Z,66.46
2022-10-12T11:46:23.225Z,66.56
2022-10-12T11:47:24.224Z,66.66
2022-10-12T11:48:27.003Z,66.36
2022-10-12T11:49:23.209Z,66.16
2022-10-12T11:50:23.196Z,65.95
2022-10-12T11:51:23.174Z,66.05
2022-10-12T11:52:27.751Z,66.13
2022-10-12T11:53:24.169Z,65.82
2022-10-12T11:54:23.136Z,65.52
2022-10-12T11:55:23.117Z,65.42
2022-10-12T11:56:23.115Z,65.62
2022-10-12T11:57:23.100Z,65.69
2022-10-12T11:58:36.298Z,65.79
2022-10-12T11:59:24.100Z,65.69
2022-10-12T12:00:23.087Z,65.48
2022-10-12T12:01:23.995Z,65.39
2022-10-12T12:02:23.074Z,65.15
2022-10-12T12:03:23.090Z,64.34
2022-10-12T12:04:41.291Z,64.44
2022-10-12T12:05:25.470Z,64.51
2022-10-12T12:06:23.003Z,64.92
2022-10-12T12:07:23.023Z,64.82
2022-10-12T12:08:22.971Z,64.51
2022-10-12T12:09:22.977Z,64.58
2022-10-12T12:10:22.953Z,64.58
2022-10-12T12:11:22.953Z,64.18
2022-10-12T12:12:22.967Z,64.07
2022-10-12T12:13:23.079Z,64.07
2022-10-12T12:14:22.907Z,63.98
2022-10-12T12:15:22.884Z,63.87
2022-10-12T12:16:22.885Z,63.98
2022-10-12T12:17:22.911Z,63.67
2022-10-12T12:18:22.885Z,63.67
2022-10-12T12:19:24.844Z,62.99
2022-10-12T12:20:22.844Z,63.20
2022-10-12T12:21:22.857Z,63.17
2022-10-12T12:22:22.820Z,62.96
2022-10-12T12:23:22.818Z,62.76
2022-10-12T12:24:22.797Z,62.99
2022-10-12T12:25:22.836Z,63.37
2022-10-12T12:26:22.777Z,63.57
2022-10-12T12:27:22.759Z,63.37
2022-10-12T12:28:22.779Z,63.17
2022-10-12T12:29:22.746Z,63.57
2022-10-12T12:30:22.729Z,63.47
2022-10-12T12:31:22.775Z,63.54
2022-10-12T12:32:22.707Z,63.54
2022-10-12T12:33:22.719Z,62.53
2022-10-12T12:34:22.709Z,62.53
2022-10-12T12:35:22.683Z,61.82
2022-10-12T12:36:22.757Z,61.92
2022-10-12T12:37:22.723Z,61.82
2022-10-12T12:38:22.677Z,61.82
2022-10-12T12:39:23.595Z,62.23
2022-10-12T12:40:22.861Z,62.93
2022-10-12T12:41:22.611Z,63.04
2022-10-12T12:42:22.815Z,62.26
2022-10-12T12:43:22.603Z,62.35
2022-10-12T12:44:22.604Z,62.05
2022-10-12T12:45:23.573Z,61.95
2022-10-12T12:46:22.553Z,62.26
2022-10-12T12:48:24.477Z,62.66
2022-10-12T12:49:22.687Z,62.76
2022-10-12T12:50:22.517Z,62.33
2022-10-12T12:51:22.727Z,62.12
2022-10-12T12:52:22.493Z,62.53
2022-10-12T12:53:22.474Z,62.53